Delta Virtual Airport Information Service

Avarua Rarotonga International Airport

ICAO: NCRG Country: Cook Islands
Latitude: -21.2027 Longitude: -159.805
Latest Arrival : DAC804 (NFTF-NCRG) Latest Departure : DAC804 (NCRG-NTAA)


WX CaptureLIVE
Data provided by noaa.gov | Fetched at 23:33:30

METAR : NCRG 060400Z AUTO 10004KT 9999 -DZ OVC050/// 21/17 Q1017

TAF : NCRG 060223Z 0602/0624 11010KT 9999 SCT015 BKN050 TEMPO 0602/0608 11015G25KT 5000 SHRA BKN015 PROB40 TEMPO 0612/0618 5000 SHRA BKN015


Runway Data for NCRG
Data provided by openaviationdata.com

Runway ID Mag Var Hdg Length Elevation Surface ILS Freq ILS Id ILS Slope
8 14 76° 7632 ft 22 ft Concrete 109.9 INO 3
26 14 256° 7632 ft 22 ft Concrete 110.3 IAV 3

Avarua Rarotonga International Airport, Cook Islands
Use only for reference purposes



Not for navigational purposes.